createdAt,value
2022-12-26T00:02:03.113Z,13.70
2022-12-26T00:04:51.101Z,13.80
2022-12-26T00:07:25.633Z,13.60
2022-12-26T00:09:54.404Z,13.90
2022-12-26T00:12:23.209Z,13.90
2022-12-26T00:14:53.537Z,13.60
2022-12-26T00:17:25.919Z,13.50
2022-12-26T00:19:55.207Z,13.50
2022-12-26T00:22:24.650Z,13.60
2022-12-26T00:24:54.475Z,13.60
2022-12-26T00:27:23.174Z,13.60
2022-12-26T00:29:53.026Z,13.60
2022-12-26T00:32:23.343Z,13.90
2022-12-26T00:34:52.139Z,13.50
2022-12-26T00:37:21.813Z,13.60
2022-12-26T00:39:51.620Z,13.60
2022-12-26T00:42:20.322Z,13.60
2022-12-26T00:44:49.997Z,13.60
2022-12-26T00:47:21.125Z,13.50
2022-12-26T00:50:14.904Z,13.50
2022-12-26T00:52:41.380Z,14.10
2022-12-26T00:55:11.431Z,13.40
2022-12-26T00:57:41.151Z,13.40
2022-12-26T01:00:11.322Z,13.50
2022-12-26T01:02:43.017Z,13.50
2022-12-26T01:05:14.712Z,14.00
2022-12-26T01:08:21.823Z,13.60
2022-12-26T01:10:32.805Z,13.80
2022-12-26T01:13:01.483Z,13.40
2022-12-26T01:15:31.001Z,13.50
2022-12-26T01:18:01.298Z,13.40
2022-12-26T01:20:33.761Z,13.50
2022-12-26T01:23:02.834Z,13.60
2022-12-26T01:25:31.829Z,13.80
2022-12-26T01:28:00.565Z,13.60
2022-12-26T01:30:29.402Z,13.50
2022-12-26T01:32:58.443Z,13.60
2022-12-26T01:35:27.259Z,13.50
2022-12-26T01:37:59.369Z,13.50
2022-12-26T01:40:28.091Z,13.90
2022-12-26T01:42:56.951Z,13.50
2022-12-26T01:45:31.108Z,13.50
2022-12-26T01:48:07.166Z,13.60
2022-12-26T01:50:45.651Z,13.90
2022-12-26T01:53:24.562Z,13.60
2022-12-26T01:56:00.055Z,13.60
2022-12-26T01:58:35.466Z,14.20
2022-12-26T02:01:08.397Z,13.60
2022-12-26T02:04:00.792Z,13.40
2022-12-26T02:06:29.603Z,14.10
2022-12-26T02:09:02.003Z,13.80
2022-12-26T02:11:39.702Z,13.50
2022-12-26T02:14:10.006Z,13.60
2022-12-26T02:16:42.484Z,13.70
2022-12-26T02:19:28.521Z,13.70
2022-12-26T02:22:36.282Z,13.60
2022-12-26T02:25:36.681Z,13.60
2022-12-26T02:29:01.650Z,13.70
2022-12-26T02:31:38.311Z,13.50
2022-12-26T02:34:15.788Z,13.50
2022-12-26T02:37:11.065Z,13.50
2022-12-26T02:40:07.361Z,13.40
2022-12-26T02:42:57.147Z,13.50
2022-12-26T02:45:56.214Z,13.80
2022-12-26T02:48:44.603Z,13.50
2022-12-26T02:51:45.280Z,13.50
2022-12-26T02:54:42.945Z,13.70
2022-12-26T02:57:37.654Z,13.60
2022-12-26T03:00:31.599Z,14.10
2022-12-26T03:03:22.868Z,13.50
2022-12-26T03:06:19.145Z,13.70
2022-12-26T03:09:11.422Z,13.50
2022-12-26T03:12:02.796Z,13.60
2022-12-26T03:14:39.051Z,13.60
2022-12-26T03:17:22.733Z,13.60
2022-12-26T03:20:00.917Z,13.60
2022-12-26T03:22:42.030Z,13.60
2022-12-26T03:25:33.324Z,13.60
2022-12-26T03:28:02.522Z,13.60
2022-12-26T03:30:49.366Z,13.50
2022-12-26T03:33:42.343Z,13.50
2022-12-26T03:36:17.945Z,13.80
2022-12-26T03:39:19.837Z,14.00
2022-12-26T03:42:18.941Z,13.50
2022-12-26T03:45:17.508Z,13.60
2022-12-26T03:48:18.091Z,13.50
2022-12-26T03:51:13.726Z,13.40
2022-12-26T03:54:08.891Z,13.40
2022-12-26T03:57:04.220Z,13.40
2022-12-26T04:00:00.691Z,13.40
2022-12-26T04:02:51.280Z,14.00
2022-12-26T04:05:39.342Z,13.40
2022-12-26T04:08:35.171Z,13.40
2022-12-26T04:11:29.665Z,13.30
2022-12-26T04:14:24.127Z,13.30
2022-12-26T04:17:30.173Z,13.30
2022-12-26T04:20:14.323Z,13.60
2022-12-26T04:23:08.445Z,13.30
2022-12-26T04:26:03.715Z,13.90
2022-12-26T04:28:52.797Z,13.20
2022-12-26T04:31:48.616Z,13.90
2022-12-26T04:34:46.425Z,14.00
2022-12-26T04:37:40.440Z,13.30
2022-12-26T04:40:35.109Z,13.90
2022-12-26T04:43:47.163Z,13.30
2022-12-26T04:46:17.619Z,13.20
2022-12-26T04:49:07.231Z,13.20
2022-12-26T04:51:36.995Z,13.30
2022-12-26T04:54:06.965Z,13.30
2022-12-26T04:56:37.342Z,13.40
2022-12-26T04:59:07.658Z,13.40
2022-12-26T05:01:55.711Z,13.40
2022-12-26T05:04:41.845Z,13.40
2022-12-26T05:07:37.138Z,13.40
2022-12-26T05:10:10.618Z,13.30
2022-12-26T05:12:40.027Z,13.30
2022-12-26T05:15:10.090Z,13.30
2022-12-26T05:17:57.914Z,13.10
2022-12-26T05:20:44.086Z,13.00
2022-12-26T05:23:38.267Z,12.80
2022-12-26T05:26:30.845Z,12.80
2022-12-26T05:29:03.985Z,12.40
2022-12-26T05:31:36.554Z,12.30
2022-12-26T05:34:06.802Z,12.10
2022-12-26T05:36:43.246Z,12.00
2022-12-26T05:39:12.380Z,11.90
2022-12-26T05:41:41.985Z,11.90
2022-12-26T05:44:12.890Z,11.80
2022-12-26T05:46:43.719Z,11.80
2022-12-26T05:49:15.206Z,11.80
2022-12-26T05:51:44.331Z,11.90
2022-12-26T05:54:13.197Z,11.70
2022-12-26T05:56:49.001Z,11.70
2022-12-26T05:59:18.464Z,11.70
2022-12-26T06:01:47.440Z,11.70
2022-12-26T06:04:18.575Z,11.90
2022-12-26T06:06:47.729Z,11.70
2022-12-26T06:09:19.609Z,12.20
2022-12-26T06:11:50.766Z,11.80
2022-12-26T06:14:20.095Z,12.20
2022-12-26T06:16:49.008Z,11.90
2022-12-26T06:19:20.649Z,12.00
2022-12-26T06:21:49.641Z,12.00
2022-12-26T06:24:18.994Z,12.00
2022-12-26T06:26:47.674Z,12.10
2022-12-26T06:29:16.764Z,12.20
2022-12-26T06:31:47.486Z,12.30
2022-12-26T06:34:16.782Z,12.40
2022-12-26T06:36:48.809Z,12.70
2022-12-26T06:39:17.752Z,12.50
2022-12-26T06:41:47.927Z,12.60
2022-12-26T06:44:18.719Z,12.60
2022-12-26T06:46:48.382Z,12.60
2022-12-26T06:49:17.041Z,12.40
2022-12-26T06:51:48.448Z,12.40
2022-12-26T06:54:18.603Z,12.20
2022-12-26T06:56:47.294Z,12.10
2022-12-26T06:59:16.102Z,12.00
2022-12-26T07:01:45.215Z,11.90
2022-12-26T07:04:16.675Z,11.70
2022-12-26T07:06:47.814Z,11.90
2022-12-26T07:09:20.600Z,11.90
2022-12-26T07:11:51.664Z,11.70
2022-12-26T07:14:21.134Z,11.70
2022-12-26T07:16:50.381Z,11.70
2022-12-26T07:19:19.357Z,11.90
2022-12-26T07:21:51.125Z,11.60
2022-12-26T07:24:23.381Z,11.60
2022-12-26T07:26:52.264Z,12.10
2022-12-26T07:29:23.698Z,12.10
2022-12-26T07:32:01.229Z,11.70
2022-12-26T07:34:31.926Z,11.70
2022-12-26T07:37:04.181Z,11.20
2022-12-26T07:39:33.170Z,11.70
2022-12-26T07:42:03.093Z,11.70
2022-12-26T07:44:34.460Z,11.70
2022-12-26T07:47:03.703Z,12.30
2022-12-26T07:49:33.881Z,11.70
2022-12-26T07:52:07.553Z,12.30
2022-12-26T07:54:36.452Z,11.70
2022-12-26T07:59:57.441Z,11.60
2022-12-26T08:02:27.265Z,11.60
2022-12-26T08:04:57.152Z,11.70
2022-12-26T08:07:28.993Z,11.60
2022-12-26T08:10:02.750Z,11.60
2022-12-26T08:12:34.200Z,11.50
2022-12-26T08:15:04.028Z,11.50
2022-12-26T08:17:34.784Z,11.50
2022-12-26T08:20:06.726Z,12.30
2022-12-26T08:22:37.225Z,11.40
2022-12-26T08:25:10.147Z,11.80
2022-12-26T08:27:41.123Z,11.40
2022-12-26T08:30:12.921Z,11.50
2022-12-26T08:32:44.339Z,11.30
2022-12-26T08:35:17.320Z,11.60
2022-12-26T08:37:49.409Z,11.20
2022-12-26T08:40:39.791Z,11.20
2022-12-26T08:46:03.620Z,11.10
2022-12-26T08:48:33.513Z,11.40
2022-12-26T08:51:05.780Z,11.10
2022-12-26T08:53:38.220Z,11.50
2022-12-26T08:56:12.766Z,10.90
2022-12-26T08:58:43.076Z,11.00
2022-12-26T09:01:16.181Z,11.00
2022-12-26T09:03:46.597Z,11.00
2022-12-26T09:06:18.140Z,11.50
2022-12-26T09:08:49.882Z,10.90
2022-12-26T09:11:22.497Z,10.90
2022-12-26T09:13:53.202Z,10.90
2022-12-26T09:16:31.537Z,10.80
2022-12-26T09:19:07.704Z,11.20
2022-12-26T09:21:37.138Z,11.40
2022-12-26T09:24:14.394Z,10.80
2022-12-26T09:26:44.266Z,10.90
2022-12-26T09:29:14.911Z,10.60
2022-12-26T09:31:44.477Z,10.90
2022-12-26T09:34:13.955Z,10.80
2022-12-26T09:36:44.050Z,11.10
2022-12-26T09:39:15.400Z,11.70
2022-12-26T09:42:04.487Z,10.70
2022-12-26T09:44:49.805Z,10.80
2022-12-26T09:47:31.132Z,10.80
2022-12-26T09:50:12.402Z,10.60
2022-12-26T09:52:51.991Z,11.30
2022-12-26T09:55:43.008Z,10.70
2022-12-26T09:58:35.448Z,10.60
2022-12-26T10:01:13.898Z,10.70
2022-12-26T10:03:47.856Z,11.20
2022-12-26T10:06:20.662Z,10.60
2022-12-26T10:09:22.390Z,11.30
2022-12-26T10:12:19.464Z,10.60
2022-12-26T10:14:58.760Z,10.70
2022-12-26T10:17:40.937Z,10.60
2022-12-26T10:20:26.777Z,10.70
2022-12-26T10:23:26.376Z,10.70
2022-12-26T10:26:02.774Z,10.00
2022-12-26T10:28:42.159Z,10.60
2022-12-26T10:31:23.087Z,10.70
2022-12-26T10:34:00.146Z,11.60
2022-12-26T10:36:38.507Z,10.70
2022-12-26T10:39:22.320Z,11.30
2022-12-26T10:41:54.420Z,10.60
2022-12-26T10:44:28.015Z,10.60
2022-12-26T10:47:27.908Z,10.70
2022-12-26T10:49:59.986Z,10.70
2022-12-26T10:52:35.739Z,10.60
2022-12-26T10:55:29.345Z,10.70
2022-12-26T10:57:59.978Z,10.70
2022-12-26T11:00:31.806Z,11.50
2022-12-26T11:03:08.214Z,10.80
2022-12-26T11:08:43.277Z,10.90
2022-12-26T11:11:22.506Z,11.10
2022-12-26T11:14:01.898Z,11.60
2022-12-26T11:16:38.897Z,10.90
2022-12-26T11:19:27.265Z,11.50
2022-12-26T11:21:57.781Z,10.90
2022-12-26T11:24:27.532Z,11.80
2022-12-26T11:27:20.498Z,10.80
2022-12-26T11:29:54.004Z,10.80
2022-12-26T11:32:31.720Z,10.80
2022-12-26T11:35:01.669Z,10.80
2022-12-26T11:37:35.628Z,10.90
2022-12-26T11:40:05.922Z,10.80
2022-12-26T11:42:34.853Z,10.80
2022-12-26T11:45:14.109Z,11.00
2022-12-26T11:47:47.842Z,11.00
2022-12-26T11:50:21.707Z,11.00
2022-12-26T11:53:06.445Z,11.00
2022-12-26T11:55:40.338Z,10.90
2022-12-26T11:58:20.733Z,10.90
2022-12-26T12:01:18.409Z,11.50
2022-12-26T12:03:51.262Z,10.80
2022-12-26T12:06:47.734Z,10.90
2022-12-26T12:09:32.560Z,10.90
2022-12-26T12:12:18.074Z,11.20
2022-12-26T12:15:04.614Z,11.30
2022-12-26T12:17:46.177Z,11.40
2022-12-26T12:20:34.197Z,10.70
2022-12-26T12:23:38.045Z,11.40
2022-12-26T12:26:15.714Z,10.00
2022-12-26T12:29:21.344Z,10.90
2022-12-26T12:32:10.091Z,10.90
2022-12-26T12:35:06.323Z,11.10
2022-12-26T12:37:54.917Z,10.90
2022-12-26T12:40:47.579Z,10.90
2022-12-26T12:43:27.210Z,10.90
2022-12-26T12:46:13.006Z,10.90
2022-12-26T12:49:14.807Z,11.00
2022-12-26T12:51:53.979Z,11.00
2022-12-26T12:55:19.409Z,11.00
2022-12-26T12:57:57.622Z,11.10
2022-12-26T13:00:32.549Z,11.10
2022-12-26T13:03:11.906Z,11.10
2022-12-26T13:05:51.059Z,11.00
2022-12-26T13:08:33.826Z,11.90
2022-12-26T13:11:12.345Z,11.50
2022-12-26T13:13:53.471Z,10.90
2022-12-26T13:16:28.996Z,11.30
2022-12-26T13:19:03.004Z,11.70
2022-12-26T13:21:39.589Z,11.00
2022-12-26T13:24:25.422Z,11.00
2022-12-26T13:27:03.111Z,11.00
2022-12-26T13:29:41.861Z,11.00
2022-12-26T13:32:23.849Z,11.10
2022-12-26T13:34:55.396Z,11.00
2022-12-26T13:37:58.138Z,10.90
2022-12-26T13:40:31.667Z,10.90
2022-12-26T13:43:34.993Z,10.30
2022-12-26T13:46:06.497Z,10.90
2022-12-26T13:49:04.045Z,11.80
2022-12-26T13:52:23.893Z,10.90
2022-12-26T13:55:35.209Z,10.40
2022-12-26T13:58:38.987Z,10.90
2022-12-26T14:01:27.061Z,11.00
2022-12-26T14:04:21.984Z,11.00
2022-12-26T14:07:16.823Z,11.00
2022-12-26T14:10:16.788Z,11.00
2022-12-26T14:13:05.453Z,11.00
2022-12-26T14:15:53.172Z,11.20
2022-12-26T14:18:38.558Z,11.70
2022-12-26T14:21:38.308Z,10.80
2022-12-26T14:24:25.288Z,11.50
2022-12-26T14:27:11.348Z,10.90
2022-12-26T14:29:51.288Z,11.00
2022-12-26T14:32:41.897Z,10.40
2022-12-26T14:35:26.314Z,10.90
2022-12-26T14:38:12.346Z,10.90
2022-12-26T14:41:01.041Z,11.30
2022-12-26T14:43:37.489Z,11.50
2022-12-26T14:46:51.863Z,10.70
2022-12-26T14:49:38.479Z,10.70
2022-12-26T14:52:40.973Z,10.90
2022-12-26T14:55:51.629Z,10.80
2022-12-26T14:58:44.687Z,10.70
2022-12-26T15:01:49.342Z,11.80
2022-12-26T15:04:47.547Z,10.80
2022-12-26T15:07:53.497Z,10.90
2022-12-26T15:11:12.559Z,10.90
2022-12-26T15:14:26.432Z,10.90
2022-12-26T15:17:13.662Z,10.90
2022-12-26T15:20:19.340Z,10.90
2022-12-26T15:23:24.115Z,10.80
2022-12-26T15:26:29.939Z,10.70
2022-12-26T15:29:46.399Z,10.70
2022-12-26T15:32:22.205Z,10.60
2022-12-26T15:35:13.898Z,10.60
2022-12-26T15:38:15.726Z,11.70
2022-12-26T15:40:52.579Z,10.50
2022-12-26T15:43:40.385Z,10.50
2022-12-26T15:46:22.114Z,10.40
2022-12-26T15:49:19.652Z,10.40
2022-12-26T15:52:00.697Z,10.50
2022-12-26T15:54:55.162Z,10.50
2022-12-26T15:57:42.443Z,10.60
2022-12-26T16:00:17.682Z,10.90
2022-12-26T16:03:00.674Z,10.60
2022-12-26T16:05:48.917Z,10.90
2022-12-26T16:08:49.580Z,10.50
2022-12-26T16:11:21.278Z,10.50
2022-12-26T16:13:58.634Z,10.40
2022-12-26T16:16:33.387Z,10.40
2022-12-26T16:19:22.775Z,10.40
2022-12-26T16:22:18.367Z,10.70
2022-12-26T16:24:51.470Z,10.60
2022-12-26T16:27:23.922Z,10.40
2022-12-26T16:29:58.971Z,10.50
2022-12-26T16:32:32.879Z,10.40
2022-12-26T16:35:01.687Z,10.40
2022-12-26T16:37:32.858Z,10.30
2022-12-26T16:40:23.288Z,10.30
2022-12-26T16:43:06.284Z,10.90
2022-12-26T16:45:39.428Z,10.20
2022-12-26T16:48:10.344Z,10.70
2022-12-26T16:50:51.081Z,10.20
2022-12-26T16:53:23.869Z,10.20
2022-12-26T16:56:00.926Z,11.10
2022-12-26T16:58:37.272Z,10.20
2022-12-26T17:01:31.531Z,10.70
2022-12-26T17:04:05.997Z,10.60
2022-12-26T17:06:38.393Z,10.20
2022-12-26T17:09:11.513Z,10.20
2022-12-26T17:11:52.843Z,10.60
2022-12-26T17:14:26.693Z,10.10
2022-12-26T17:17:00.384Z,10.20
2022-12-26T17:19:32.116Z,10.00
2022-12-26T17:22:30.762Z,9.90
2022-12-26T17:25:26.916Z,9.90
2022-12-26T17:28:29.893Z,9.90
2022-12-26T17:31:18.677Z,9.90
2022-12-26T17:33:48.393Z,10.20
2022-12-26T17:36:52.921Z,9.90
2022-12-26T17:39:22.136Z,9.90
2022-12-26T17:41:55.877Z,9.90
2022-12-26T17:44:44.514Z,10.10
2022-12-26T17:47:25.631Z,9.20
2022-12-26T17:49:57.405Z,9.80
2022-12-26T17:52:30.219Z,9.90
2022-12-26T17:55:01.041Z,9.30
2022-12-26T17:57:32.135Z,10.20
2022-12-26T18:00:03.868Z,9.70
2022-12-26T18:05:24.547Z,10.10
2022-12-26T18:07:54.968Z,10.40
2022-12-26T18:10:27.004Z,9.90
2022-12-26T18:12:56.763Z,10.30
2022-12-26T18:15:30.610Z,10.40
2022-12-26T18:18:00.008Z,9.50
2022-12-26T18:20:31.765Z,9.90
2022-12-26T18:23:01.587Z,9.00
2022-12-26T18:25:30.075Z,9.10
2022-12-26T18:27:59.244Z,9.30
2022-12-26T18:30:32.204Z,9.90
2022-12-26T18:33:01.879Z,9.00
2022-12-26T18:35:31.481Z,9.00
2022-12-26T18:38:00.376Z,9.60
2022-12-26T18:40:37.061Z,9.60
2022-12-26T18:43:09.271Z,9.10
2022-12-26T18:45:41.367Z,9.10
2022-12-26T18:48:15.682Z,9.90
2022-12-26T18:50:46.013Z,9.90
2022-12-26T18:53:15.788Z,9.30
2022-12-26T18:55:46.459Z,10.10
2022-12-26T18:58:15.280Z,9.20
2022-12-26T19:00:47.561Z,9.20
2022-12-26T19:03:16.537Z,9.40
2022-12-26T19:05:45.384Z,8.50
2022-12-26T19:08:14.486Z,9.30
2022-12-26T19:10:47.590Z,9.00
2022-12-26T19:13:17.001Z,9.80
2022-12-26T19:15:50.124Z,8.70
2022-12-26T19:18:19.607Z,8.70
2022-12-26T19:20:49.099Z,8.60
2022-12-26T19:23:18.589Z,9.30
2022-12-26T19:25:48.107Z,8.60
2022-12-26T19:28:17.212Z,8.70
2022-12-26T19:30:51.606Z,8.60
2022-12-26T19:33:20.841Z,8.80
2022-12-26T19:38:47.430Z,9.50
2022-12-26T19:41:16.981Z,9.00
2022-12-26T19:43:46.010Z,9.10
2022-12-26T19:46:17.640Z,9.30
2022-12-26T19:48:47.631Z,8.40
2022-12-26T19:51:22.176Z,8.40
2022-12-26T19:53:52.142Z,8.40
2022-12-26T19:56:26.768Z,8.50
2022-12-26T19:58:57.078Z,8.40
2022-12-26T20:01:30.081Z,8.80
2022-12-26T20:04:02.201Z,8.50
2022-12-26T20:06:37.402Z,8.30
2022-12-26T20:09:10.708Z,8.30
2022-12-26T20:11:46.643Z,8.30
2022-12-26T20:14:20.305Z,8.30
2022-12-26T20:17:09.546Z,8.30
2022-12-26T20:19:39.534Z,8.60
2022-12-26T20:22:11.791Z,8.20
2022-12-26T20:24:40.773Z,8.80
2022-12-26T20:27:10.613Z,8.30
2022-12-26T20:29:39.670Z,8.40
2022-12-26T20:32:13.178Z,8.20
2022-12-26T20:34:42.439Z,8.60
2022-12-26T20:37:12.692Z,8.20
2022-12-26T20:39:41.425Z,8.40
2022-12-26T20:42:11.424Z,9.00
2022-12-26T20:44:43.036Z,8.20
2022-12-26T20:47:13.503Z,8.20
2022-12-26T20:49:42.383Z,9.30
2022-12-26T20:52:11.019Z,8.40
2022-12-26T20:54:41.100Z,8.10
2022-12-26T20:57:12.645Z,8.20
2022-12-26T20:59:42.211Z,8.10
2022-12-26T21:02:14.870Z,8.00
2022-12-26T21:04:44.163Z,8.00
2022-12-26T21:07:13.110Z,7.90
2022-12-26T21:09:46.424Z,8.80
2022-12-26T21:12:17.045Z,8.30
2022-12-26T21:14:46.433Z,7.80
2022-12-26T21:17:20.711Z,7.90
2022-12-26T21:19:51.312Z,7.80
2022-12-26T21:22:20.859Z,9.10
2022-12-26T21:24:50.567Z,8.30
2022-12-26T21:27:21.688Z,7.80
2022-12-26T21:29:51.824Z,7.70
2022-12-26T21:32:22.872Z,8.30
2022-12-26T21:34:56.150Z,7.70
2022-12-26T21:37:48.131Z,7.80
2022-12-26T21:40:18.423Z,7.70
2022-12-26T21:42:48.110Z,8.20
2022-12-26T21:45:20.363Z,7.90
2022-12-26T21:48:06.936Z,7.90
2022-12-26T21:50:38.260Z,7.70
2022-12-26T21:53:10.088Z,7.70
2022-12-26T21:55:41.406Z,7.70
2022-12-26T21:58:13.142Z,8.20
2022-12-26T22:00:42.319Z,8.30
2022-12-26T22:03:30.457Z,7.20
2022-12-26T22:06:03.464Z,7.90
2022-12-26T22:08:32.066Z,7.60
2022-12-26T22:11:19.739Z,7.90
2022-12-26T22:13:50.836Z,7.70
2022-12-26T22:16:25.886Z,9.00
2022-12-26T22:19:00.482Z,8.10
2022-12-26T22:24:15.806Z,6.90
2022-12-26T22:26:44.958Z,7.50
2022-12-26T22:32:07.997Z,7.60
2022-12-26T22:34:38.256Z,7.60
2022-12-26T22:37:07.064Z,7.50
2022-12-26T22:39:35.943Z,7.70
2022-12-26T22:42:04.481Z,7.50
2022-12-26T22:44:33.728Z,7.50
2022-12-26T22:47:05.865Z,8.80
2022-12-26T22:49:38.519Z,7.40
2022-12-26T22:52:15.882Z,7.40
2022-12-26T22:54:46.689Z,8.40
2022-12-26T22:57:18.879Z,6.80
2022-12-26T23:02:38.404Z,7.10
2022-12-26T23:05:11.379Z,7.70
2022-12-26T23:07:44.493Z,7.10
2022-12-26T23:10:23.634Z,7.10
2022-12-26T23:12:54.247Z,7.00
2022-12-26T23:15:26.845Z,7.10
2022-12-26T23:18:36.219Z,7.10
2022-12-26T23:21:35.013Z,7.10
2022-12-26T23:24:08.540Z,7.10
2022-12-26T23:26:38.390Z,7.20
2022-12-26T23:29:25.392Z,7.10
2022-12-26T23:31:55.044Z,7.70
2022-12-26T23:34:24.260Z,7.00
2022-12-26T23:36:54.232Z,7.50
2022-12-26T23:39:25.406Z,6.90
2022-12-26T23:41:55.139Z,6.90
2022-12-26T23:44:27.162Z,6.50
2022-12-26T23:46:56.764Z,6.70
2022-12-26T23:49:27.567Z,6.70
2022-12-26T23:51:56.541Z,6.60
2022-12-26T23:54:27.508Z,6.60
2022-12-26T23:56:56.747Z,6.40
2022-12-26T23:59:26.115Z,6.30
